createdAt,value
2019-05-18T00:01:29.742Z,18.03
2019-05-18T00:03:59.293Z,20.27
2019-05-18T00:06:29.857Z,19.27
2019-05-18T00:08:59.461Z,19.10
2019-05-18T00:11:29.103Z,19.40
2019-05-18T00:13:58.635Z,18.97
2019-05-18T00:16:28.267Z,18.53
2019-05-18T00:18:57.813Z,18.10
2019-05-18T00:21:27.393Z,19.57
2019-05-18T00:23:56.954Z,20.37
2019-05-18T00:26:26.512Z,20.50
2019-05-18T00:28:57.623Z,20.90
2019-05-18T00:31:27.206Z,19.63
2019-05-18T00:33:56.777Z,19.23
2019-05-18T00:36:26.519Z,18.07
2019-05-18T00:38:56.054Z,19.60
2019-05-18T00:41:25.654Z,21.00
2019-05-18T00:43:55.208Z,19.23
2019-05-18T00:46:24.845Z,20.33
2019-05-18T00:48:54.502Z,21.30
2019-05-18T00:51:24.064Z,21.03
2019-05-18T00:53:53.634Z,21.77
2019-05-18T00:56:23.227Z,20.17
2019-05-18T00:58:52.829Z,21.30
2019-05-18T01:01:22.484Z,20.00
2019-05-18T01:03:52.020Z,19.73
2019-05-18T01:06:21.601Z,18.50
2019-05-18T01:08:51.209Z,22.17
2019-05-18T01:11:20.752Z,22.50
2019-05-18T01:13:50.388Z,22.47
2019-05-18T01:16:20.049Z,22.77
2019-05-18T01:18:49.603Z,22.70
2019-05-18T01:21:19.213Z,23.23
2019-05-18T01:23:48.773Z,21.87
2019-05-18T01:26:18.338Z,22.03
2019-05-18T01:28:47.909Z,23.13
2019-05-18T01:31:17.473Z,23.23
2019-05-18T01:33:47.081Z,22.20
2019-05-18T01:36:16.641Z,22.30
2019-05-18T01:38:46.260Z,22.67
2019-05-18T01:41:15.869Z,22.87
2019-05-18T01:43:45.408Z,24.83
2019-05-18T01:46:15.000Z,24.50
2019-05-18T01:48:44.524Z,24.80
2019-05-18T01:51:14.098Z,26.13
2019-05-18T01:53:43.781Z,24.97
2019-05-18T01:56:13.368Z,27.47
2019-05-18T01:58:42.924Z,27.30
2019-05-18T02:01:12.546Z,26.87
2019-05-18T02:03:42.173Z,27.13
2019-05-18T02:06:11.789Z,26.53
2019-05-18T02:08:41.410Z,25.77
2019-05-18T02:11:10.945Z,27.17
2019-05-18T02:13:40.518Z,26.70
2019-05-18T02:16:10.098Z,27.07
2019-05-18T02:18:39.674Z,25.43
2019-05-18T02:21:09.219Z,24.30
2019-05-18T02:23:38.761Z,25.63
2019-05-18T02:26:08.334Z,23.73
2019-05-18T02:28:38.486Z,25.30
2019-05-18T02:31:08.006Z,23.67
2019-05-18T02:33:37.599Z,25.33
2019-05-18T02:36:07.176Z,26.10
2019-05-18T02:38:36.861Z,23.90
2019-05-18T02:41:06.537Z,24.43
2019-05-18T02:43:36.115Z,24.60
2019-05-18T02:46:05.794Z,23.90
2019-05-18T02:48:48.413Z,25.67
2019-05-18T02:51:11.574Z,26.00
2019-05-18T02:53:40.658Z,24.63
2019-05-18T02:56:10.229Z,23.37
2019-05-18T02:58:39.839Z,24.07
2019-05-18T03:01:09.413Z,22.20
2019-05-18T03:03:39.008Z,23.30
2019-05-18T03:06:08.806Z,22.10
2019-05-18T03:08:38.513Z,21.83
2019-05-18T03:11:08.146Z,23.13
2019-05-18T03:13:37.787Z,23.40
2019-05-18T03:16:07.358Z,24.10
2019-05-18T03:18:36.932Z,24.43
2019-05-18T03:21:06.497Z,25.07
2019-05-18T03:23:36.058Z,23.63
2019-05-18T03:26:05.671Z,26.37
2019-05-18T03:28:35.318Z,23.87
2019-05-18T03:31:04.999Z,24.70
2019-05-18T03:33:34.592Z,25.43
2019-05-18T03:36:04.256Z,26.47
2019-05-18T03:38:33.831Z,24.80
2019-05-18T03:41:03.430Z,27.63
2019-05-18T03:43:33.037Z,27.23
2019-05-18T03:46:02.606Z,26.20
2019-05-18T03:48:32.209Z,24.50
2019-05-18T03:51:01.795Z,25.13
2019-05-18T03:53:31.370Z,25.70
2019-05-18T03:56:01.039Z,25.10
2019-05-18T03:58:30.690Z,26.23
2019-05-18T04:01:00.394Z,27.87
2019-05-18T04:03:30.758Z,25.93
2019-05-18T04:06:00.309Z,26.43
2019-05-18T04:08:29.880Z,27.53
2019-05-18T04:10:59.467Z,26.27
2019-05-18T04:13:29.027Z,25.40
2019-05-18T04:15:59.551Z,23.97
2019-05-18T04:18:29.137Z,25.97
2019-05-18T04:21:01.841Z,26.40
2019-05-18T04:23:31.422Z,28.00
2019-05-18T04:26:00.993Z,27.37
2019-05-18T04:28:30.544Z,27.63
2019-05-18T04:31:00.198Z,24.77
2019-05-18T04:33:29.854Z,25.70
2019-05-18T04:35:59.438Z,27.00
2019-05-18T04:38:29.041Z,24.43
2019-05-18T04:40:58.583Z,24.53
2019-05-18T04:43:28.182Z,25.33
2019-05-18T04:45:57.856Z,24.97
2019-05-18T04:48:27.497Z,24.67
2019-05-18T04:50:58.030Z,26.37
2019-05-18T04:53:28.615Z,27.13
2019-05-18T04:55:58.618Z,26.77
2019-05-18T04:58:28.220Z,26.63
2019-05-18T05:00:57.768Z,25.40
2019-05-18T05:03:27.358Z,26.97
2019-05-18T05:05:56.908Z,24.80
2019-05-18T05:08:26.492Z,26.83
2019-05-18T05:10:56.088Z,27.30
2019-05-18T05:13:26.602Z,28.00
2019-05-18T05:15:56.184Z,27.50
2019-05-18T05:18:25.750Z,26.07
2019-05-18T05:20:55.555Z,27.07
2019-05-18T05:23:25.187Z,25.23
2019-05-18T05:25:54.820Z,24.83
2019-05-18T05:28:24.388Z,26.37
2019-05-18T05:30:54.002Z,25.93
2019-05-18T05:33:23.649Z,26.47
2019-05-18T05:35:53.249Z,26.87
2019-05-18T05:38:22.835Z,24.30
2019-05-18T05:40:52.476Z,23.70
2019-05-18T05:43:22.028Z,25.27
2019-05-18T05:45:51.580Z,23.10
2019-05-18T05:48:21.236Z,24.13
2019-05-18T05:50:50.791Z,23.30
2019-05-18T05:53:20.344Z,23.67
2019-05-18T05:55:49.918Z,22.70
2019-05-18T05:58:19.515Z,21.90
2019-05-18T06:00:49.092Z,22.70
2019-05-18T06:03:18.684Z,22.33
2019-05-18T06:05:48.230Z,20.13
2019-05-18T06:08:17.799Z,19.03
2019-05-18T06:10:47.351Z,20.33
2019-05-18T06:13:17.032Z,19.23
2019-05-18T06:15:46.606Z,18.57
2019-05-18T06:18:16.264Z,19.03
2019-05-18T06:20:51.318Z,17.67
2019-05-18T06:23:17.280Z,18.77
2019-05-18T06:25:47.103Z,15.13
2019-05-18T06:28:16.911Z,14.20
2019-05-18T06:30:46.472Z,14.93
2019-05-18T06:33:16.064Z,14.33
2019-05-18T06:35:45.670Z,12.97
2019-05-18T06:38:15.319Z,13.07
2019-05-18T06:40:44.916Z,11.87
2019-05-18T06:43:14.541Z,12.47
2019-05-18T06:45:44.173Z,12.17
2019-05-18T06:48:13.733Z,12.07
2019-05-18T06:50:44.170Z,10.97
2019-05-18T06:53:13.724Z,11.20
2019-05-18T06:55:43.804Z,10.97
2019-05-18T06:58:14.751Z,10.33
2019-05-18T07:00:44.283Z,9.57
2019-05-18T07:03:17.197Z,11.57
2019-05-18T07:05:46.773Z,11.67
2019-05-18T07:08:17.374Z,11.40
2019-05-18T07:10:46.948Z,11.67
2019-05-18T07:13:16.500Z,11.33
2019-05-18T07:15:46.080Z,11.00
2019-05-18T07:18:15.673Z,12.73
2019-05-18T07:20:45.212Z,12.53
2019-05-18T07:23:14.772Z,12.70
2019-05-18T07:25:44.421Z,12.60
2019-05-18T07:28:14.011Z,12.53
2019-05-18T07:30:43.790Z,13.57
2019-05-18T07:33:14.336Z,12.47
2019-05-18T07:35:43.936Z,11.83
2019-05-18T07:38:13.508Z,12.77
2019-05-18T07:40:43.064Z,11.37
2019-05-18T07:43:12.661Z,12.73
2019-05-18T07:45:42.207Z,13.33
2019-05-18T07:48:11.817Z,12.43
2019-05-18T07:50:41.407Z,12.03
2019-05-18T07:53:11.011Z,13.13
2019-05-18T07:55:40.534Z,12.90
2019-05-18T07:58:10.096Z,12.23
2019-05-18T08:00:39.900Z,11.00
2019-05-18T08:03:09.737Z,10.60
2019-05-18T08:05:39.292Z,11.00
2019-05-18T08:08:09.824Z,11.10
2019-05-18T08:10:39.519Z,10.37
2019-05-18T08:13:09.182Z,11.17
2019-05-18T08:15:38.800Z,10.00
2019-05-18T08:18:08.385Z,10.70
2019-05-18T08:20:37.952Z,10.90
2019-05-18T08:23:07.499Z,10.20
2019-05-18T08:25:37.101Z,7.37
2019-05-18T08:28:06.641Z,8.67
2019-05-18T08:30:36.210Z,9.53
2019-05-18T08:33:05.871Z,9.90
2019-05-18T08:35:35.434Z,8.50
2019-05-18T08:38:05.091Z,8.87
2019-05-18T08:40:34.618Z,8.37
2019-05-18T08:43:04.331Z,8.63
2019-05-18T08:45:33.857Z,9.53
2019-05-18T08:48:03.426Z,8.50
2019-05-18T08:50:33.025Z,8.50
2019-05-18T08:53:02.595Z,8.43
2019-05-18T08:55:32.216Z,7.33
2019-05-18T08:58:01.779Z,8.03
2019-05-18T09:00:31.429Z,9.00
2019-05-18T09:03:00.958Z,8.10
2019-05-18T09:05:30.512Z,8.30
2019-05-18T09:08:00.178Z,7.87
2019-05-18T09:10:29.761Z,7.50
2019-05-18T09:12:59.350Z,8.57
2019-05-18T09:15:28.902Z,6.70
2019-05-18T09:17:58.513Z,8.20
2019-05-18T09:20:28.076Z,6.70
2019-05-18T09:22:57.669Z,9.10
2019-05-18T09:25:27.209Z,7.70
2019-05-18T09:27:56.743Z,7.00
2019-05-18T09:30:26.403Z,6.47
2019-05-18T09:32:55.944Z,6.83
2019-05-18T09:35:26.542Z,7.47
2019-05-18T09:37:56.442Z,6.83
2019-05-18T09:40:26.002Z,7.40
2019-05-18T09:42:55.549Z,5.93
2019-05-18T09:45:25.255Z,5.83
2019-05-18T09:47:54.854Z,5.93
2019-05-18T09:50:24.498Z,6.20
2019-05-18T09:52:54.048Z,5.47
2019-05-18T09:55:23.622Z,5.70
2019-05-18T09:57:53.175Z,5.97
2019-05-18T10:00:23.200Z,5.53
2019-05-18T10:02:52.781Z,5.33
2019-05-18T10:05:22.351Z,5.67
2019-05-18T10:07:51.993Z,4.73
2019-05-18T10:10:21.616Z,5.20
2019-05-18T10:12:51.184Z,6.10
2019-05-18T10:15:20.966Z,5.60
2019-05-18T10:17:50.653Z,5.37
2019-05-18T10:20:20.418Z,5.77
2019-05-18T10:22:58.953Z,5.93
2019-05-18T10:25:21.399Z,4.83
2019-05-18T10:27:50.957Z,5.40
2019-05-18T10:30:21.241Z,5.47
2019-05-18T10:32:50.780Z,5.63
2019-05-18T10:35:20.360Z,5.33
2019-05-18T10:37:49.959Z,5.70
2019-05-18T10:40:19.864Z,5.80
2019-05-18T10:42:49.417Z,5.60
2019-05-18T10:45:18.979Z,6.20
2019-05-18T10:47:48.529Z,5.93
2019-05-18T10:50:18.168Z,6.30
2019-05-18T10:52:47.739Z,6.67
2019-05-18T10:55:18.023Z,5.87
2019-05-18T10:57:47.716Z,6.37
2019-05-18T11:00:19.193Z,6.17
2019-05-18T11:02:48.925Z,6.43
2019-05-18T11:05:19.494Z,6.50
2019-05-18T11:07:49.048Z,5.57
2019-05-18T11:10:18.827Z,6.27
2019-05-18T11:12:48.373Z,5.03
2019-05-18T11:15:18.883Z,6.37
2019-05-18T11:17:48.496Z,5.27
2019-05-18T11:20:18.721Z,5.70
2019-05-18T11:22:48.331Z,5.97
2019-05-18T11:25:17.970Z,5.97
2019-05-18T11:27:47.541Z,5.63
2019-05-18T11:30:17.519Z,6.23
2019-05-18T11:32:47.052Z,5.47
2019-05-18T11:35:18.993Z,5.90
2019-05-18T11:37:48.614Z,5.53
2019-05-18T11:40:18.749Z,6.47
2019-05-18T11:42:48.329Z,6.30
2019-05-18T11:45:19.113Z,5.90
2019-05-18T11:47:48.728Z,5.90
2019-05-18T11:50:18.632Z,6.73
2019-05-18T11:52:48.275Z,5.87
2019-05-18T11:55:17.908Z,5.63
2019-05-18T11:57:47.450Z,5.40
2019-05-18T12:00:17.704Z,5.67
2019-05-18T12:02:47.332Z,6.30
2019-05-18T12:05:17.192Z,5.80
2019-05-18T12:07:46.956Z,5.43
2019-05-18T12:10:18.546Z,5.73
2019-05-18T12:12:47.977Z,6.00
2019-05-18T12:15:17.900Z,4.40
2019-05-18T12:17:47.496Z,4.30
2019-05-18T12:20:17.199Z,4.20
2019-05-18T12:22:46.850Z,4.30
2019-05-18T12:25:16.864Z,5.13
2019-05-18T12:27:46.546Z,5.30
2019-05-18T12:30:17.075Z,5.27
2019-05-18T12:32:46.660Z,4.30
2019-05-18T12:35:16.361Z,4.03
2019-05-18T12:37:45.914Z,4.20
2019-05-18T12:40:18.492Z,3.50
2019-05-18T12:42:48.141Z,3.50
2019-05-18T12:45:19.485Z,3.87
2019-05-18T12:47:48.997Z,3.23
2019-05-18T12:50:19.625Z,3.40
2019-05-18T12:52:49.223Z,3.73
2019-05-18T12:55:19.161Z,3.27
2019-05-18T12:57:48.817Z,3.43
2019-05-18T13:00:19.124Z,3.53
2019-05-18T13:02:49.696Z,3.43
2019-05-18T13:05:19.935Z,3.73
2019-05-18T13:07:49.574Z,4.17
2019-05-18T13:10:20.101Z,3.87
2019-05-18T13:12:49.752Z,4.50
2019-05-18T13:15:22.258Z,3.90
2019-05-18T13:17:51.915Z,3.60
2019-05-18T13:20:22.081Z,3.63
2019-05-18T13:22:51.603Z,4.03
2019-05-18T13:25:21.337Z,3.33
2019-05-18T13:27:50.896Z,3.17
2019-05-18T13:30:20.798Z,3.60
2019-05-18T13:32:50.359Z,3.50
2019-05-18T13:35:19.976Z,3.17
2019-05-18T13:37:49.527Z,3.30
2019-05-18T13:40:19.512Z,3.70
2019-05-18T13:42:49.060Z,3.47
2019-05-18T13:45:19.184Z,3.63
2019-05-18T13:47:48.795Z,3.63
2019-05-18T13:50:18.801Z,3.57
2019-05-18T13:52:48.441Z,2.87
2019-05-18T13:55:17.977Z,2.80
2019-05-18T13:57:47.566Z,3.03
2019-05-18T14:00:17.848Z,2.90
2019-05-18T14:02:47.563Z,2.70
2019-05-18T14:05:17.453Z,2.40
2019-05-18T14:07:47.990Z,3.03
2019-05-18T14:10:18.431Z,3.93
2019-05-18T14:12:48.022Z,3.77
2019-05-18T14:15:22.558Z,2.80
2019-05-18T14:17:50.242Z,3.17
2019-05-18T14:20:20.870Z,3.60
2019-05-18T14:22:50.392Z,3.93
2019-05-18T14:25:20.393Z,3.30
2019-05-18T14:27:50.188Z,3.57
2019-05-18T14:30:21.620Z,3.10
2019-05-18T14:32:51.144Z,3.20
2019-05-18T14:35:20.871Z,3.13
2019-05-18T14:37:50.441Z,2.60
2019-05-18T14:40:20.114Z,2.67
2019-05-18T14:42:49.630Z,2.87
2019-05-18T14:45:19.348Z,2.25
2019-05-18T14:47:48.957Z,2.70
2019-05-18T14:50:19.147Z,2.40
2019-05-18T14:52:48.777Z,2.10
2019-05-18T14:55:32.781Z,2.10
2019-05-18T14:57:51.255Z,2.90
2019-05-18T15:00:21.029Z,2.70
2019-05-18T15:02:50.592Z,2.72
2019-05-18T15:05:20.142Z,2.40
2019-05-18T15:07:49.713Z,2.75
2019-05-18T15:10:19.474Z,2.47
2019-05-18T15:12:49.040Z,2.35
2019-05-18T15:15:18.843Z,2.20
2019-05-18T15:17:48.394Z,2.20
2019-05-18T15:20:18.253Z,2.03
2019-05-18T15:22:47.833Z,2.17
2019-05-18T15:25:17.461Z,2.67
2019-05-18T15:27:47.052Z,2.30
2019-05-18T15:30:17.161Z,2.42
2019-05-18T15:32:46.699Z,2.50
2019-05-18T15:35:16.530Z,2.50
2019-05-18T15:37:46.170Z,1.90
2019-05-18T15:40:16.371Z,2.33
2019-05-18T15:42:46.086Z,1.98
2019-05-18T15:45:16.378Z,1.92
2019-05-18T15:47:45.923Z,2.15
2019-05-18T15:50:16.869Z,2.60
2019-05-18T15:52:46.388Z,2.27
2019-05-18T15:55:16.196Z,2.20
2019-05-18T15:57:45.791Z,2.47
2019-05-18T16:00:16.122Z,2.13
2019-05-18T16:02:45.729Z,2.70
2019-05-18T16:05:15.689Z,2.60
2019-05-18T16:07:45.301Z,2.70
2019-05-18T16:10:17.022Z,2.57
2019-05-18T16:12:46.598Z,2.37
2019-05-18T16:18:12.655Z,2.37
2019-05-18T16:20:42.460Z,2.13
2019-05-18T16:23:12.008Z,2.77
2019-05-18T16:25:41.614Z,2.10
2019-05-18T16:28:11.151Z,2.10
2019-05-18T16:30:40.726Z,2.30
2019-05-18T16:33:10.301Z,2.40
2019-05-18T16:35:39.836Z,2.33
2019-05-18T16:38:09.382Z,2.33
2019-05-18T16:40:38.959Z,2.20
2019-05-18T16:43:08.532Z,2.30
2019-05-18T16:45:39.069Z,2.20
2019-05-18T16:48:08.655Z,2.00
2019-05-18T16:50:39.203Z,2.10
2019-05-18T16:53:08.776Z,2.03
2019-05-18T16:55:38.346Z,2.57
2019-05-18T16:58:07.968Z,2.77
2019-05-18T17:00:37.626Z,2.80
2019-05-18T17:03:07.257Z,2.43
2019-05-18T17:05:36.852Z,2.53
2019-05-18T17:08:06.391Z,3.00
2019-05-18T17:10:35.983Z,3.10
2019-05-18T17:13:05.531Z,2.90
2019-05-18T17:15:35.192Z,2.97
2019-05-18T17:18:04.809Z,2.90
2019-05-18T17:20:34.465Z,2.83
2019-05-18T17:23:04.069Z,2.90
2019-05-18T17:25:33.789Z,2.63
2019-05-18T17:28:03.411Z,3.00
2019-05-18T17:30:33.030Z,2.57
2019-05-18T17:33:02.674Z,2.83
2019-05-18T17:35:32.246Z,2.53
2019-05-18T17:38:01.775Z,2.87
2019-05-18T17:40:34.407Z,3.40
2019-05-18T17:43:04.067Z,2.97
2019-05-18T17:45:33.678Z,2.60
2019-05-18T17:48:03.295Z,2.70
2019-05-18T17:50:32.861Z,2.80
2019-05-18T17:53:02.438Z,2.70
2019-05-18T17:55:32.022Z,2.60
2019-05-18T17:58:01.715Z,2.70
2019-05-18T18:00:31.350Z,2.90
2019-05-18T18:03:00.915Z,2.83
2019-05-18T18:05:30.484Z,2.37
2019-05-18T18:08:00.035Z,2.77
2019-05-18T18:10:29.575Z,2.57
2019-05-18T18:12:59.216Z,2.70
2019-05-18T18:15:28.765Z,2.97
2019-05-18T18:17:58.362Z,2.60
2019-05-18T18:20:28.873Z,3.10
2019-05-18T18:22:58.451Z,2.80
2019-05-18T18:25:28.048Z,2.70
2019-05-18T18:27:57.648Z,3.03
2019-05-18T18:30:27.297Z,3.30
2019-05-18T18:32:56.855Z,3.80
2019-05-18T18:35:26.391Z,3.60
2019-05-18T18:37:55.985Z,3.40
2019-05-18T18:40:25.545Z,3.50
2019-05-18T18:42:55.093Z,3.67
2019-05-18T18:45:24.698Z,3.00
2019-05-18T18:47:54.248Z,3.47
2019-05-18T18:50:23.914Z,3.80
2019-05-18T18:52:53.506Z,3.40
2019-05-18T18:55:23.086Z,3.27
2019-05-18T18:57:52.713Z,3.33
2019-05-18T19:00:22.827Z,3.50
2019-05-18T19:02:52.405Z,3.27
2019-05-18T19:05:22.137Z,3.43
2019-05-18T19:07:51.710Z,3.80
2019-05-18T19:10:21.386Z,3.43
2019-05-18T19:12:50.933Z,3.90
2019-05-18T19:15:20.765Z,3.60
2019-05-18T19:17:50.398Z,4.17
2019-05-18T19:20:20.049Z,4.63
2019-05-18T19:22:49.661Z,4.13
2019-05-18T19:25:19.542Z,4.13
2019-05-18T19:27:55.189Z,3.90
2019-05-18T19:30:20.626Z,4.63
2019-05-18T19:32:50.188Z,4.73
2019-05-18T19:35:19.850Z,4.53
2019-05-18T19:37:49.418Z,5.07
2019-05-18T19:40:19.112Z,5.00
2019-05-18T19:42:48.657Z,7.67
2019-05-18T19:45:18.393Z,8.57
2019-05-18T19:47:47.929Z,5.80
2019-05-18T19:50:17.605Z,5.97
2019-05-18T19:52:47.155Z,5.23
2019-05-18T19:55:16.757Z,5.10
2019-05-18T19:57:46.332Z,4.70
2019-05-18T20:00:16.295Z,6.03
2019-05-18T20:02:45.922Z,5.57
2019-05-18T20:05:15.689Z,5.43
2019-05-18T20:07:45.277Z,5.00
2019-05-18T20:10:15.189Z,5.43
2019-05-18T20:12:44.744Z,6.37
2019-05-18T20:15:14.561Z,6.17
2019-05-18T20:17:44.149Z,6.23
2019-05-18T20:20:14.366Z,6.10
2019-05-18T20:22:44.042Z,5.87
2019-05-18T20:25:15.219Z,5.40
2019-05-18T20:27:44.800Z,5.20
2019-05-18T20:30:14.940Z,5.97
2019-05-18T20:32:44.546Z,5.73
2019-05-18T20:35:14.290Z,5.23
2019-05-18T20:37:43.853Z,6.37
2019-05-18T20:40:13.764Z,5.87
2019-05-18T20:42:43.432Z,6.43
2019-05-18T20:45:13.082Z,6.07
2019-05-18T20:47:42.647Z,5.90
2019-05-18T20:50:12.520Z,5.70
2019-05-18T20:52:42.109Z,5.67
2019-05-18T20:55:12.697Z,6.07
2019-05-18T20:57:42.305Z,6.47
2019-05-18T21:00:12.158Z,6.50
2019-05-18T21:02:45.997Z,6.57
2019-05-18T21:05:18.167Z,6.50
2019-05-18T21:07:50.365Z,6.03
2019-05-18T21:10:23.113Z,6.07
2019-05-18T21:12:55.994Z,6.70
2019-05-18T21:15:25.689Z,6.37
2019-05-18T21:17:55.333Z,6.80
2019-05-18T21:20:24.893Z,6.23
2019-05-18T21:22:55.494Z,5.50
2019-05-18T21:25:25.385Z,6.17
2019-05-18T21:27:55.014Z,6.20
2019-05-18T21:30:24.649Z,6.43
2019-05-18T21:32:54.314Z,6.30
2019-05-18T21:35:23.893Z,6.07
2019-05-18T21:37:53.467Z,5.67
2019-05-18T21:40:26.087Z,6.10
2019-05-18T21:42:54.412Z,6.27
2019-05-18T21:45:24.029Z,6.37
2019-05-18T21:47:53.609Z,5.87
2019-05-18T21:50:23.246Z,6.60
2019-05-18T21:52:52.862Z,6.13
2019-05-18T21:55:22.438Z,6.00
2019-05-18T21:57:52.008Z,6.77
2019-05-18T22:00:22.403Z,6.33
2019-05-18T22:02:53.692Z,6.33
2019-05-18T22:05:23.301Z,5.63
2019-05-18T22:07:52.932Z,5.90
2019-05-18T22:10:25.869Z,6.17
2019-05-18T22:12:53.904Z,6.10
2019-05-18T22:15:23.501Z,5.67
2019-05-18T22:18:05.402Z,6.33
2019-05-18T22:20:35.625Z,6.37
2019-05-18T22:23:06.167Z,6.70
2019-05-18T22:25:35.733Z,6.97
2019-05-18T22:28:05.337Z,6.60
2019-05-18T22:30:34.960Z,5.90
2019-05-18T22:33:04.560Z,6.93
2019-05-18T22:35:34.221Z,7.30
2019-05-18T22:38:03.759Z,6.40
2019-05-18T22:40:33.338Z,7.13
2019-05-18T22:43:02.916Z,7.13
2019-05-18T22:45:32.677Z,7.30
2019-05-18T22:48:02.213Z,7.07
2019-05-18T22:50:31.764Z,6.63
2019-05-18T22:53:01.352Z,6.73
2019-05-18T22:55:30.965Z,7.60
2019-05-18T22:58:00.498Z,6.40
2019-05-18T23:00:30.100Z,7.13
2019-05-18T23:02:59.652Z,7.13
2019-05-18T23:05:29.237Z,8.03
2019-05-18T23:07:58.869Z,6.93
2019-05-18T23:10:28.437Z,7.03
2019-05-18T23:12:58.014Z,6.80
2019-05-18T23:15:27.588Z,7.43
2019-05-18T23:17:57.149Z,6.83
2019-05-18T23:20:26.783Z,7.20
2019-05-18T23:22:56.357Z,7.57
2019-05-18T23:25:25.907Z,7.50
2019-05-18T23:27:55.531Z,7.97
2019-05-18T23:30:25.132Z,7.57
2019-05-18T23:32:54.848Z,7.50
2019-05-18T23:35:24.400Z,7.70
2019-05-18T23:37:54.028Z,7.90
2019-05-18T23:40:23.661Z,7.67
2019-05-18T23:42:53.235Z,8.20
2019-05-18T23:45:22.780Z,7.80
2019-05-18T23:47:52.333Z,8.27
2019-05-18T23:50:21.942Z,7.80
2019-05-18T23:52:51.583Z,8.53
2019-05-18T23:55:21.163Z,8.77
2019-05-18T23:57:50.813Z,8.70
